Elko Regional Airport
KEKO : now visible

Airfield :











YOU CAN JOIN US ON...

 
LOGIN :

Register | Disclaimer

   EN    FR    IT 

 









Legend :    VFR   Marginal VFR   IFR   Intensive IFR   Very Intensive IFR
Visi :
Ceiling :
>= 8 km
>= 3000ft
5 to 8 km
1000 to 3000 ft
1500m to 5 km
500 to 1000 ft
800 to 1500m
200 to 500 ft
< 800m
< 200 ft
Symbols :   Thunderstorms  Fog  Heavy snow  Heavy precipitations  Wind > 20 kt







- Airport Elevation : 5140 ft
- IATA code : EKO


KEKO - Elko Regional

CURRENT METAR :
  • 212156Z AUTO 20004KT 10SM CLR 17/01 A3014 RMK AO2 SLP189 T01670011

EXPIRED METARs :
  • 212056Z AUTO 13004KT 10SM FEW055 17/02 A3015 RMK AO2 SLP194 T01670017 58018
  • 211956Z AUTO 20007KT 10SM FEW060 16/02 A3018 RMK AO2 SLP199 T01610022

TAF KEKO
Valid from the 21 at 18:00 until the 22 at 18:00 UTC


211727Z 2118/2218 VRB03KT P6SM FEW050
FM212000 25007KT P6SM FEW080
FM220300 VRB03KT P6SM SKC
No reported NOTAMs for that airfield.



MET'MAP, your aeronautical weather chart ! - Copyright ORBIFLY December 2007 - Disclaimer

ORBIFLY MET'MAP TEAM :

Programming & Development : Alexandra Zaïnal
Concept & Development : Baudouin d'Aumeries
Co-Development & Prog : Marc-Olivier Méhu
Technical & hardware support : Manuel Goepfert

Contact : metmap@orbifly.com




SOURCES & CREDITS :

   NOAA       Earth
Advisory